createdAt,value
2022-09-14T00:01:42.245Z,20.10
2022-09-14T00:03:45.117Z,20.08
2022-09-14T00:05:48.241Z,20.07
2022-09-14T00:07:50.809Z,20.09
2022-09-14T00:09:53.553Z,20.10
2022-09-14T00:11:56.348Z,20.12
2022-09-14T00:14:02.048Z,20.12
2022-09-14T00:16:06.483Z,20.13
2022-09-14T00:18:11.642Z,20.13
2022-09-14T00:20:14.562Z,20.14
2022-09-14T00:22:17.159Z,20.14
2022-09-14T00:24:20.268Z,20.13
2022-09-14T00:26:23.848Z,20.13
2022-09-14T00:28:26.422Z,20.34
2022-09-14T00:30:30.281Z,20.27
2022-09-14T00:32:32.826Z,20.20
2022-09-14T00:34:35.771Z,20.24
2022-09-14T00:36:41.207Z,20.16
2022-09-14T00:38:43.791Z,20.12
2022-09-14T00:40:46.351Z,20.08
2022-09-14T00:42:49.107Z,20.05
2022-09-14T00:45:08.740Z,20.03
2022-09-14T00:47:14.700Z,20.03
2022-09-14T00:49:21.951Z,20.02
2022-09-14T00:51:25.637Z,20.00
2022-09-14T00:53:28.247Z,19.99
2022-09-14T00:55:30.817Z,19.99
2022-09-14T00:57:38.286Z,20.00
2022-09-14T00:59:43.521Z,19.98
2022-09-14T01:01:46.392Z,19.94
2022-09-14T01:03:50.492Z,19.98
2022-09-14T01:06:05.993Z,19.93
2022-09-14T01:08:21.373Z,19.93
2022-09-14T01:10:34.489Z,19.92
2022-09-14T01:12:45.550Z,19.92
2022-09-14T01:14:56.043Z,19.93
2022-09-14T01:17:07.739Z,19.93
2022-09-14T01:19:16.327Z,19.90
2022-09-14T01:21:21.852Z,19.93
2022-09-14T01:23:30.999Z,19.95
2022-09-14T01:26:05.584Z,19.95
2022-09-14T01:28:15.097Z,19.98
2022-09-14T01:30:22.629Z,19.99
2022-09-14T01:32:29.699Z,20.00
2022-09-14T01:34:35.594Z,19.98
2022-09-14T01:36:42.681Z,20.00
2022-09-14T01:38:49.637Z,19.98
2022-09-14T01:40:52.426Z,20.00
2022-09-14T01:42:58.925Z,20.05
2022-09-14T01:45:08.969Z,20.01
2022-09-14T01:47:17.957Z,20.00
2022-09-14T01:49:25.169Z,20.01
2022-09-14T01:51:32.728Z,20.00
2022-09-14T01:53:41.110Z,19.98
2022-09-14T01:55:48.654Z,19.93
2022-09-14T01:57:54.555Z,19.90
2022-09-14T02:00:01.427Z,19.89
2022-09-14T02:02:08.681Z,19.88
2022-09-14T02:04:16.115Z,19.87
2022-09-14T02:06:24.867Z,19.86
2022-09-14T02:08:30.541Z,19.85
2022-09-14T02:10:33.653Z,19.85
2022-09-14T02:12:36.777Z,19.76
2022-09-14T02:14:39.436Z,19.79
2022-09-14T02:16:43.529Z,19.78
2022-09-14T02:18:47.540Z,19.75
2022-09-14T02:20:54.744Z,19.73
2022-09-14T02:22:57.274Z,19.69
2022-09-14T02:25:00.775Z,19.67
2022-09-14T02:27:04.522Z,19.66
2022-09-14T02:29:07.141Z,19.68
2022-09-14T02:31:18.068Z,19.65
2022-09-14T02:33:27.106Z,19.63
2022-09-14T02:35:36.987Z,19.64
2022-09-14T02:37:45.687Z,19.55
2022-09-14T02:39:57.730Z,19.54
2022-09-14T02:42:07.832Z,19.56
2022-09-14T02:44:19.228Z,19.58
2022-09-14T02:46:29.543Z,19.58
2022-09-14T02:48:39.786Z,19.57
2022-09-14T02:50:48.382Z,19.60
2022-09-14T02:52:59.369Z,19.59
2022-09-14T02:55:06.064Z,19.49
2022-09-14T02:57:08.597Z,19.55
2022-09-14T02:59:11.217Z,19.56
2022-09-14T03:01:16.919Z,19.60
2022-09-14T03:03:22.112Z,19.58
2022-09-14T03:07:28.776Z,19.61
2022-09-14T03:09:31.314Z,19.61
2022-09-14T03:11:33.886Z,19.61
2022-09-14T03:13:37.293Z,19.64
2022-09-14T03:15:40.288Z,19.64
2022-09-14T03:17:46.787Z,19.61
2022-09-14T03:19:49.819Z,19.61
2022-09-14T03:21:52.446Z,19.61
2022-09-14T03:23:57.814Z,19.62
2022-09-14T03:26:00.340Z,19.60
2022-09-14T03:28:03.051Z,19.60
2022-09-14T03:30:05.996Z,19.59
2022-09-14T03:32:10.858Z,19.58
2022-09-14T03:34:13.431Z,19.56
2022-09-14T03:36:17.886Z,19.65
2022-09-14T03:38:21.345Z,19.68
2022-09-14T03:40:25.332Z,19.62
2022-09-14T03:42:27.945Z,19.60
2022-09-14T03:44:30.479Z,19.59
2022-09-14T03:46:33.784Z,19.58
2022-09-14T03:48:36.635Z,19.53
2022-09-14T03:50:39.590Z,19.52
2022-09-14T03:52:42.372Z,19.50
2022-09-14T03:54:44.916Z,19.50
2022-09-14T03:56:48.826Z,19.48
2022-09-14T03:58:53.694Z,19.47
2022-09-14T04:00:57.411Z,19.51
2022-09-14T04:03:01.643Z,19.46
2022-09-14T04:05:04.550Z,19.43
2022-09-14T04:07:07.392Z,19.43
2022-09-14T04:09:10.141Z,19.41
2022-09-14T04:11:15.083Z,19.41
2022-09-14T04:13:19.167Z,19.40
2022-09-14T04:15:21.732Z,19.38
2022-09-14T04:17:25.256Z,19.37
2022-09-14T04:19:28.231Z,19.37
2022-09-14T04:21:30.769Z,19.37
2022-09-14T04:23:36.574Z,19.36
2022-09-14T04:25:49.076Z,19.30
2022-09-14T04:28:16.863Z,19.33
2022-09-14T04:30:16.667Z,19.32
2022-09-14T04:32:19.258Z,19.35
2022-09-14T04:34:21.844Z,19.35
2022-09-14T04:36:28.193Z,19.37
2022-09-14T04:38:32.029Z,19.36
2022-09-14T04:40:34.558Z,19.35
2022-09-14T04:42:37.115Z,19.34
2022-09-14T04:44:39.842Z,19.36
2022-09-14T04:46:46.863Z,19.37
2022-09-14T04:48:50.392Z,19.38
2022-09-14T04:50:53.084Z,19.38
2022-09-14T04:52:55.650Z,19.38
2022-09-14T04:54:58.233Z,19.40
2022-09-14T04:57:00.734Z,19.38
2022-09-14T04:59:04.772Z,19.37
2022-09-14T05:01:09.452Z,19.35
2022-09-14T05:03:13.386Z,19.27
2022-09-14T05:05:15.977Z,19.33
2022-09-14T05:07:18.499Z,19.33
2022-09-14T05:09:21.599Z,19.34
2022-09-14T05:11:25.632Z,19.32
2022-09-14T05:13:28.169Z,19.32
2022-09-14T05:15:30.754Z,19.32
2022-09-14T05:17:35.125Z,19.28
2022-09-14T05:19:39.026Z,19.30
2022-09-14T05:21:41.663Z,19.30
2022-09-14T05:23:45.194Z,19.29
2022-09-14T05:25:53.920Z,19.27
2022-09-14T05:27:56.491Z,19.29
2022-09-14T05:29:59.049Z,19.30
2022-09-14T05:32:01.602Z,19.29
2022-09-14T05:34:04.282Z,19.29
2022-09-14T05:36:10.074Z,19.31
2022-09-14T05:38:12.636Z,19.34
2022-09-14T05:40:15.339Z,19.37
2022-09-14T05:42:18.023Z,19.39
2022-09-14T05:44:20.641Z,19.41
2022-09-14T05:46:23.224Z,19.44
2022-09-14T05:48:25.774Z,19.41
2022-09-14T05:50:28.585Z,19.44
2022-09-14T05:52:32.455Z,19.45
2022-09-14T05:54:34.994Z,19.43
2022-09-14T05:56:37.657Z,19.39
2022-09-14T05:58:41.483Z,19.40
2022-09-14T06:00:44.040Z,19.39
2022-09-14T06:02:50.287Z,19.47
2022-09-14T06:04:52.874Z,19.45
2022-09-14T06:07:14.906Z,19.46
2022-09-14T06:09:19.260Z,19.49
2022-09-14T06:11:23.866Z,19.48
2022-09-14T06:13:26.355Z,19.49
2022-09-14T06:15:28.971Z,19.51
2022-09-14T06:17:32.188Z,19.54
2022-09-14T06:19:34.714Z,19.55
2022-09-14T06:21:37.219Z,19.54
2022-09-14T06:23:39.788Z,19.58
2022-09-14T06:25:44.403Z,19.53
2022-09-14T06:27:46.926Z,19.52
2022-09-14T06:29:52.109Z,19.56
2022-09-14T06:31:57.500Z,19.56
2022-09-14T06:34:00.087Z,19.62
2022-09-14T06:36:04.870Z,19.68
2022-09-14T06:38:07.460Z,19.66
2022-09-14T06:40:11.002Z,19.68
2022-09-14T06:42:15.211Z,19.70
2022-09-14T06:44:17.732Z,19.73
2022-09-14T06:46:23.477Z,19.75
2022-09-14T06:48:26.270Z,19.77
2022-09-14T06:50:28.884Z,19.79
2022-09-14T06:52:33.767Z,19.79
2022-09-14T06:54:36.610Z,19.85
2022-09-14T06:56:40.856Z,19.86
2022-09-14T06:58:45.399Z,19.91
2022-09-14T07:00:47.914Z,19.91
2022-09-14T07:02:54.926Z,19.93
2022-09-14T07:04:58.098Z,19.95
2022-09-14T07:07:00.690Z,20.00
2022-09-14T07:09:05.238Z,20.00
2022-09-14T07:11:09.710Z,20.02
2022-09-14T07:13:12.238Z,20.04
2022-09-14T07:15:16.254Z,20.25
2022-09-14T07:17:19.783Z,20.16
2022-09-14T07:19:22.386Z,20.16
2022-09-14T07:21:25.639Z,20.16
2022-09-14T07:23:28.167Z,20.17
2022-09-14T07:25:30.720Z,20.18
2022-09-14T07:27:34.464Z,20.20
2022-09-14T07:29:37.068Z,20.22
2022-09-14T07:31:42.758Z,20.29
2022-09-14T07:33:45.366Z,20.35
2022-09-14T07:35:47.927Z,20.35
2022-09-14T07:37:50.508Z,20.41
2022-09-14T07:39:53.247Z,20.45
2022-09-14T07:41:55.827Z,20.47
2022-09-14T07:44:00.594Z,20.54
2022-09-14T07:46:04.432Z,20.53
2022-09-14T07:48:08.336Z,20.53
2022-09-14T07:50:11.160Z,20.54
2022-09-14T07:52:13.726Z,20.55
2022-09-14T07:54:20.388Z,20.55
2022-09-14T07:56:25.759Z,20.59
2022-09-14T07:58:28.729Z,20.64
2022-09-14T08:00:31.430Z,20.69
2022-09-14T08:02:34.661Z,20.72
2022-09-14T08:04:39.582Z,20.73
2022-09-14T08:06:42.281Z,20.87
2022-09-14T08:08:48.328Z,20.84
2022-09-14T08:10:51.044Z,20.91
2022-09-14T08:12:54.287Z,20.90
2022-09-14T08:14:56.846Z,20.92
2022-09-14T08:17:00.795Z,20.94
2022-09-14T08:19:07.620Z,21.04
2022-09-14T08:21:13.778Z,21.10
2022-09-14T08:23:16.307Z,21.12
2022-09-14T08:25:18.866Z,21.18
2022-09-14T08:27:21.445Z,21.15
2022-09-14T08:29:24.037Z,21.19
2022-09-14T08:31:28.490Z,21.20
2022-09-14T08:33:32.627Z,21.23
2022-09-14T08:35:56.326Z,21.48
2022-09-14T08:37:59.008Z,21.62
2022-09-14T08:40:01.560Z,21.67
2022-09-14T08:42:06.094Z,21.58
2022-09-14T08:44:17.884Z,21.61
2022-09-14T08:46:28.429Z,21.58
2022-09-14T08:48:36.011Z,21.59
2022-09-14T08:50:39.067Z,21.63
2022-09-14T08:52:44.600Z,21.72
2022-09-14T08:54:49.121Z,21.75
2022-09-14T08:57:00.614Z,21.73
2022-09-14T08:59:34.157Z,21.81
2022-09-14T09:01:44.871Z,21.74
2022-09-14T09:04:00.049Z,21.70
2022-09-14T09:06:15.740Z,21.77
2022-09-14T09:08:24.758Z,21.78
2022-09-14T09:10:30.422Z,21.75
2022-09-14T09:12:37.891Z,21.75
2022-09-14T09:14:44.928Z,21.78
2022-09-14T09:16:51.309Z,22.02
2022-09-14T09:18:58.394Z,22.01
2022-09-14T09:21:06.059Z,22.08
2022-09-14T09:23:14.232Z,22.03
2022-09-14T09:25:23.130Z,22.06
2022-09-14T09:27:27.803Z,22.17
2022-09-14T09:29:30.407Z,22.27
2022-09-14T09:31:35.885Z,22.42
2022-09-14T09:33:38.540Z,22.33
2022-09-14T09:35:41.314Z,22.27
2022-09-14T09:37:43.863Z,22.35
2022-09-14T09:39:47.331Z,22.26
2022-09-14T09:41:55.808Z,22.30
2022-09-14T09:44:02.019Z,22.20
2022-09-14T09:46:05.907Z,22.19
2022-09-14T09:48:10.841Z,22.28
2022-09-14T09:50:20.314Z,22.28
2022-09-14T09:52:23.073Z,22.25
2022-09-14T09:54:29.699Z,22.24
2022-09-14T09:56:36.669Z,22.35
2022-09-14T09:58:39.984Z,22.35
2022-09-14T10:00:57.077Z,22.30
2022-09-14T10:03:02.478Z,22.27
2022-09-14T10:05:07.234Z,22.35
2022-09-14T10:07:22.063Z,22.43
2022-09-14T10:09:28.023Z,22.55
2022-09-14T10:11:36.547Z,22.59
2022-09-14T10:13:40.876Z,22.62
2022-09-14T10:15:45.296Z,22.66
2022-09-14T10:18:06.703Z,22.79
2022-09-14T10:20:22.353Z,22.76
2022-09-14T10:22:28.158Z,22.85
2022-09-14T10:24:38.537Z,22.94
2022-09-14T10:26:41.063Z,22.93
2022-09-14T10:28:45.344Z,22.93
2022-09-14T10:30:56.159Z,22.93
2022-09-14T10:33:02.165Z,22.99
2022-09-14T10:35:13.766Z,23.01
2022-09-14T10:37:27.802Z,23.06
2022-09-14T10:39:36.731Z,23.14
2022-09-14T10:41:45.511Z,23.27
2022-09-14T10:44:21.761Z,23.29
2022-09-14T10:46:30.870Z,23.23
2022-09-14T10:48:58.293Z,23.22
2022-09-14T10:51:23.379Z,23.22
2022-09-14T10:53:41.309Z,23.21
2022-09-14T10:55:49.884Z,23.26
2022-09-14T10:57:57.901Z,23.57
2022-09-14T11:00:07.345Z,23.35
2022-09-14T11:02:40.845Z,23.32
2022-09-14T11:04:58.880Z,23.29
2022-09-14T11:07:10.101Z,23.29
2022-09-14T11:09:22.205Z,23.31
2022-09-14T11:11:36.542Z,23.46
2022-09-14T11:13:50.650Z,23.48
2022-09-14T11:16:01.505Z,23.57
2022-09-14T11:18:14.814Z,23.55
2022-09-14T11:20:26.573Z,23.50
2022-09-14T11:22:38.233Z,23.60
2022-09-14T11:24:43.398Z,23.54
2022-09-14T11:26:54.872Z,23.69
2022-09-14T11:29:04.735Z,23.89
2022-09-14T11:31:13.058Z,23.88
2022-09-14T11:33:21.503Z,23.78
2022-09-14T11:35:28.860Z,23.74
2022-09-14T11:37:37.975Z,23.71
2022-09-14T11:39:45.779Z,23.81
2022-09-14T11:41:51.778Z,24.19
2022-09-14T11:43:58.550Z,24.23
2022-09-14T11:46:07.034Z,24.41
2022-09-14T11:48:41.273Z,24.23
2022-09-14T11:50:44.925Z,24.13
2022-09-14T11:52:49.750Z,24.18
2022-09-14T11:54:53.334Z,24.16
2022-09-14T11:57:00.439Z,24.10
2022-09-14T11:59:06.865Z,24.05
2022-09-14T12:01:31.849Z,24.10
2022-09-14T12:03:54.829Z,24.05
2022-09-14T12:06:37.570Z,24.00
2022-09-14T12:08:41.691Z,24.00
2022-09-14T12:11:02.421Z,23.91
2022-09-14T12:13:20.954Z,23.81
2022-09-14T12:15:34.769Z,23.81
2022-09-14T12:17:40.220Z,23.76
2022-09-14T12:19:46.425Z,23.72
2022-09-14T12:21:49.162Z,23.70
2022-09-14T12:23:57.640Z,23.74
2022-09-14T12:26:15.757Z,23.63
2022-09-14T12:28:30.338Z,23.58
2022-09-14T12:31:07.793Z,23.64
2022-09-14T12:33:58.070Z,23.55
2022-09-14T12:36:01.233Z,23.32
2022-09-14T12:38:37.322Z,23.22
2022-09-14T12:40:41.387Z,23.23
2022-09-14T12:42:43.974Z,23.10
2022-09-14T12:44:46.507Z,23.07
2022-09-14T12:46:49.133Z,23.12
2022-09-14T12:48:58.562Z,22.94
2022-09-14T12:51:01.831Z,22.88
2022-09-14T12:53:29.206Z,22.77
2022-09-14T12:55:46.052Z,22.71
2022-09-14T12:57:56.921Z,22.81
2022-09-14T13:00:07.317Z,22.67
2022-09-14T13:02:35.137Z,22.49
2022-09-14T13:04:39.729Z,22.38
2022-09-14T13:06:45.388Z,22.50
2022-09-14T13:08:50.141Z,22.47
2022-09-14T13:10:54.532Z,22.54
2022-09-14T13:12:57.545Z,22.51
2022-09-14T13:15:04.017Z,22.34
2022-09-14T13:17:16.486Z,22.17
2022-09-14T13:19:25.775Z,22.25
2022-09-14T13:21:28.313Z,22.21
2022-09-14T13:23:36.829Z,22.08
2022-09-14T13:25:40.033Z,22.02
2022-09-14T13:27:49.877Z,22.01
2022-09-14T13:30:00.359Z,21.94
2022-09-14T13:32:04.096Z,22.08
2022-09-14T13:34:07.439Z,22.01
2022-09-14T13:36:10.586Z,21.78
2022-09-14T13:38:17.592Z,21.81
2022-09-14T13:40:25.121Z,21.81
2022-09-14T13:42:27.940Z,21.85
2022-09-14T13:44:35.846Z,21.82
2022-09-14T13:46:38.668Z,21.78
2022-09-14T13:48:43.771Z,21.85
2022-09-14T13:50:50.998Z,21.87
2022-09-14T13:53:02.328Z,21.80
2022-09-14T13:55:17.255Z,21.77
2022-09-14T13:57:21.367Z,21.77
2022-09-14T13:59:23.961Z,21.87
2022-09-14T14:01:29.826Z,21.94
2022-09-14T14:03:39.255Z,21.77
2022-09-14T14:05:43.582Z,21.72
2022-09-14T14:07:46.866Z,21.74
2022-09-14T14:09:52.179Z,21.81
2022-09-14T14:11:56.343Z,21.91
2022-09-14T14:14:13.823Z,21.98
2022-09-14T14:16:20.027Z,22.01
2022-09-14T14:18:41.245Z,21.92
2022-09-14T14:20:43.985Z,21.95
2022-09-14T14:22:57.010Z,22.01
2022-09-14T14:25:16.028Z,22.17
2022-09-14T14:27:33.211Z,22.17
2022-09-14T14:29:35.783Z,22.01
2022-09-14T14:31:38.349Z,22.13
2022-09-14T14:33:51.051Z,21.99
2022-09-14T14:35:56.332Z,22.16
2022-09-14T14:37:59.581Z,22.06
2022-09-14T14:40:02.514Z,22.01
2022-09-14T14:42:05.914Z,21.80
2022-09-14T14:44:13.464Z,21.63
2022-09-14T14:46:16.941Z,21.68
2022-09-14T14:48:19.527Z,21.68
2022-09-14T14:52:26.625Z,21.40
2022-09-14T14:54:29.259Z,21.27
2022-09-14T14:56:31.804Z,21.23
2022-09-14T14:58:36.408Z,21.28
2022-09-14T15:00:39.389Z,21.33
2022-09-14T15:02:42.048Z,21.17
2022-09-14T15:04:44.559Z,21.07
2022-09-14T15:06:49.032Z,21.00
2022-09-14T15:08:54.764Z,20.94
2022-09-14T15:10:58.052Z,20.94
2022-09-14T15:13:00.585Z,21.11
2022-09-14T15:15:03.468Z,21.06
2022-09-14T15:17:06.443Z,20.97
2022-09-14T15:19:10.244Z,20.97
2022-09-14T15:21:12.829Z,20.91
2022-09-14T15:23:16.731Z,20.90
2022-09-14T15:25:21.515Z,20.94
2022-09-14T15:27:24.067Z,20.94
2022-09-14T15:29:26.610Z,21.11
2022-09-14T15:31:29.603Z,21.10
2022-09-14T15:33:32.210Z,21.09
2022-09-14T15:35:34.819Z,21.12
2022-09-14T15:37:37.446Z,21.13
2022-09-14T15:39:45.193Z,21.09
2022-09-14T15:41:50.981Z,21.08
2022-09-14T15:43:53.644Z,21.17
2022-09-14T15:45:56.367Z,21.36
2022-09-14T15:47:58.919Z,21.33
2022-09-14T15:50:01.443Z,21.67
2022-09-14T15:52:04.454Z,21.53
2022-09-14T15:54:07.124Z,21.58
2022-09-14T15:56:12.858Z,21.54
2022-09-14T15:58:18.450Z,21.60
2022-09-14T16:00:21.058Z,21.58
2022-09-14T16:02:23.673Z,21.58
2022-09-14T16:04:26.330Z,21.41
2022-09-14T16:06:29.412Z,21.37
2022-09-14T16:08:31.958Z,21.32
2022-09-14T16:10:35.155Z,21.27
2022-09-14T16:12:39.020Z,21.32
2022-09-14T16:14:41.698Z,21.23
2022-09-14T16:16:44.353Z,21.20
2022-09-14T16:18:49.766Z,21.29
2022-09-14T16:20:52.389Z,21.30
2022-09-14T16:22:54.942Z,21.35
2022-09-14T16:25:00.348Z,21.36
2022-09-14T16:27:02.907Z,21.46
2022-09-14T16:29:08.394Z,21.30
2022-09-14T16:31:13.361Z,21.26
2022-09-14T16:33:15.964Z,21.31
2022-09-14T16:35:18.526Z,21.26
2022-09-14T16:37:21.092Z,21.26
2022-09-14T16:39:25.157Z,21.22
2022-09-14T16:41:28.441Z,21.17
2022-09-14T16:43:31.769Z,21.12
2022-09-14T16:45:35.701Z,21.09
2022-09-14T16:47:38.311Z,21.10
2022-09-14T16:49:40.835Z,21.08
2022-09-14T16:51:43.760Z,20.99
2022-09-14T16:53:47.616Z,21.03
2022-09-14T16:55:50.166Z,21.01
2022-09-14T16:57:52.708Z,21.17
2022-09-14T16:59:55.259Z,21.04
2022-09-14T17:01:59.232Z,20.98
2022-09-14T17:04:05.290Z,20.98
2022-09-14T17:06:10.143Z,20.98
2022-09-14T17:08:12.689Z,21.03
2022-09-14T17:10:15.331Z,21.01
2022-09-14T17:12:17.898Z,20.88
2022-09-14T17:14:25.630Z,20.93
2022-09-14T17:16:29.270Z,20.79
2022-09-14T17:18:33.454Z,20.75
2022-09-14T17:20:36.021Z,20.78
2022-09-14T17:22:38.590Z,20.71
2022-09-14T17:24:41.155Z,20.74
2022-09-14T17:26:44.076Z,20.76
2022-09-14T17:28:49.166Z,20.81
2022-09-14T17:30:52.727Z,20.75
2022-09-14T17:32:55.307Z,20.67
2022-09-14T17:34:59.163Z,20.73
2022-09-14T17:37:01.673Z,20.73
2022-09-14T17:39:10.693Z,20.67
2022-09-14T17:41:16.333Z,20.61
2022-09-14T17:43:21.202Z,20.54
2022-09-14T17:45:23.769Z,20.30
2022-09-14T17:47:26.449Z,20.11
2022-09-14T17:49:29.371Z,20.19
2022-09-14T17:51:36.304Z,20.07
2022-09-14T17:53:40.063Z,20.10
2022-09-14T17:55:42.849Z,20.07
2022-09-14T17:57:45.765Z,20.11
2022-09-14T17:59:48.318Z,20.08
2022-09-14T18:01:51.231Z,20.02
2022-09-14T18:03:55.528Z,20.02
2022-09-14T18:05:58.098Z,20.00
2022-09-14T18:08:02.245Z,20.11
2022-09-14T18:10:08.832Z,20.03
2022-09-14T18:12:11.447Z,20.03
2022-09-14T18:14:14.896Z,20.02
2022-09-14T18:16:19.164Z,19.94
2022-09-14T18:18:21.703Z,19.98
2022-09-14T18:20:24.300Z,19.94
2022-09-14T18:22:27.018Z,19.91
2022-09-14T18:24:31.059Z,19.86
2022-09-14T18:26:33.839Z,19.83
2022-09-14T18:28:37.305Z,19.83
2022-09-14T18:30:43.625Z,19.81
2022-09-14T18:32:47.020Z,19.79
2022-09-14T18:34:49.574Z,19.77
2022-09-14T18:36:52.615Z,19.70
2022-09-14T18:38:55.341Z,19.68
2022-09-14T18:41:05.073Z,19.75
2022-09-14T18:43:07.749Z,19.77
2022-09-14T18:45:11.325Z,19.67
2022-09-14T18:47:14.034Z,19.62
2022-09-14T18:49:16.566Z,19.61
2022-09-14T18:51:19.366Z,19.62
2022-09-14T18:53:21.960Z,19.58
2022-09-14T18:55:24.533Z,19.52
2022-09-14T18:57:28.892Z,19.52
2022-09-14T18:59:31.455Z,19.54
2022-09-14T19:01:35.132Z,19.56
2022-09-14T19:03:39.038Z,19.56
2022-09-14T19:05:42.979Z,19.57
2022-09-14T19:07:45.715Z,19.53
2022-09-14T19:09:48.449Z,19.58
2022-09-14T19:11:50.952Z,19.61
2022-09-14T19:13:58.559Z,19.62
2022-09-14T19:16:06.149Z,19.65
2022-09-14T19:18:09.685Z,19.64
2022-09-14T19:20:12.286Z,19.64
2022-09-14T19:22:14.890Z,19.71
2022-09-14T19:24:18.729Z,19.68
2022-09-14T19:26:21.867Z,19.73
2022-09-14T19:28:24.435Z,19.74
2022-09-14T19:30:28.419Z,19.74
2022-09-14T19:32:30.966Z,19.73
2022-09-14T19:34:33.513Z,19.88
2022-09-14T19:36:37.005Z,19.86
2022-09-14T19:38:39.684Z,19.78
2022-09-14T19:40:51.673Z,19.79
2022-09-14T19:42:54.933Z,19.79
2022-09-14T19:44:57.476Z,19.74
2022-09-14T19:47:01.466Z,19.65
2022-09-14T19:49:04.055Z,19.58
2022-09-14T19:51:08.691Z,19.72
2022-09-14T19:53:11.260Z,19.62
2022-09-14T19:55:13.812Z,19.64
2022-09-14T19:57:16.826Z,19.61
2022-09-14T19:59:19.495Z,19.59
2022-09-14T20:01:23.659Z,19.59
2022-09-14T20:03:27.556Z,19.60
2022-09-14T20:05:30.263Z,19.58
2022-09-14T20:07:32.893Z,19.56
2022-09-14T20:09:35.601Z,19.53
2022-09-14T20:11:40.174Z,19.56
2022-09-14T20:13:43.430Z,19.61
2022-09-14T20:15:46.021Z,19.56
2022-09-14T20:17:48.693Z,19.53
2022-09-14T20:19:52.852Z,19.44
2022-09-14T20:21:55.644Z,19.37
2022-09-14T20:24:16.739Z,19.27
2022-09-14T20:26:20.164Z,19.20
2022-09-14T20:28:26.214Z,19.17
2022-09-14T20:30:28.746Z,19.15
2022-09-14T20:32:31.290Z,19.14
2022-09-14T20:34:34.342Z,19.11
2022-09-14T20:36:38.891Z,19.10
2022-09-14T20:38:46.514Z,19.07
2022-09-14T20:40:56.507Z,19.05
2022-09-14T20:42:59.279Z,19.01
2022-09-14T20:45:01.786Z,18.99
2022-09-14T20:47:04.431Z,18.94
2022-09-14T20:49:10.090Z,18.92
2022-09-14T20:51:17.168Z,18.87
2022-09-14T20:53:22.602Z,18.83
2022-09-14T20:55:25.167Z,18.80
2022-09-14T20:57:27.980Z,18.65
2022-09-14T20:59:30.643Z,18.65
2022-09-14T21:01:36.635Z,18.58
2022-09-14T21:03:42.078Z,18.53
2022-09-14T21:05:44.716Z,18.51
2022-09-14T21:07:55.992Z,18.52
2022-09-14T21:10:00.220Z,18.48
2022-09-14T21:12:03.189Z,18.50
2022-09-14T21:14:06.197Z,18.51
2022-09-14T21:16:10.871Z,18.48
2022-09-14T21:18:16.578Z,18.45
2022-09-14T21:20:21.225Z,18.46
2022-09-14T21:22:23.998Z,18.43
2022-09-14T21:24:26.682Z,18.42
2022-09-14T21:26:33.875Z,18.41
2022-09-14T21:28:37.579Z,18.42
2022-09-14T21:30:40.113Z,18.40
2022-09-14T21:32:47.235Z,18.38
2022-09-14T21:34:49.801Z,18.37
2022-09-14T21:36:52.826Z,18.36
2022-09-14T21:38:56.887Z,18.33
2022-09-14T21:40:59.595Z,18.33
2022-09-14T21:43:03.875Z,18.32
2022-09-14T21:45:07.183Z,18.29
2022-09-14T21:47:09.836Z,18.27
2022-09-14T21:49:15.345Z,18.29
2022-09-14T21:51:20.229Z,18.25
2022-09-14T21:53:22.765Z,18.30
2022-09-14T21:55:25.382Z,18.26
2022-09-14T21:57:29.095Z,18.24
2022-09-14T21:59:32.988Z,18.22
2022-09-14T22:01:35.834Z,18.30
2022-09-14T22:03:39.062Z,18.26
2022-09-14T22:05:41.638Z,18.28
2022-09-14T22:07:44.187Z,18.26
2022-09-14T22:09:46.719Z,18.30
2022-09-14T22:11:49.373Z,18.28
2022-09-14T22:13:55.025Z,18.32
2022-09-14T22:15:59.087Z,18.30
2022-09-14T22:18:02.467Z,18.30
2022-09-14T22:20:05.532Z,18.30
2022-09-14T22:22:08.190Z,18.31
2022-09-14T22:24:13.927Z,18.32
2022-09-14T22:26:16.504Z,18.32
2022-09-14T22:28:19.133Z,18.31
2022-09-14T22:30:21.722Z,18.31
2022-09-14T22:32:25.624Z,18.26
2022-09-14T22:34:28.760Z,18.27
2022-09-14T22:36:31.303Z,18.31
2022-09-14T22:38:35.566Z,18.33
2022-09-14T22:40:38.100Z,18.33
2022-09-14T22:42:40.962Z,18.33
2022-09-14T22:44:43.491Z,18.33
2022-09-14T22:46:46.495Z,18.35
2022-09-14T22:48:51.353Z,18.38
2022-09-14T22:50:56.206Z,18.44
2022-09-14T22:52:58.759Z,18.47
2022-09-14T22:55:01.349Z,18.54
2022-09-14T22:57:03.969Z,18.57
2022-09-14T22:59:08.360Z,18.56
2022-09-14T23:01:14.285Z,18.60
2022-09-14T23:03:18.069Z,18.60
2022-09-14T23:05:21.947Z,18.58
2022-09-14T23:07:25.088Z,18.55
2022-09-14T23:09:28.046Z,18.57
2022-09-14T23:11:31.097Z,18.55
2022-09-14T23:13:36.754Z,18.54
2022-09-14T23:15:39.787Z,18.53
2022-09-14T23:17:42.394Z,18.56
2022-09-14T23:19:44.944Z,18.58
2022-09-14T23:21:48.834Z,18.61
2022-09-14T23:23:52.515Z,18.65
2022-09-14T23:25:55.069Z,18.69
2022-09-14T23:27:57.585Z,18.70
2022-09-14T23:30:00.124Z,18.74
2022-09-14T23:32:03.306Z,18.72
2022-09-14T23:34:06.477Z,18.74
2022-09-14T23:36:09.532Z,18.77
2022-09-14T23:38:13.458Z,18.70
2022-09-14T23:40:18.244Z,18.83
2022-09-14T23:42:20.808Z,18.83
2022-09-14T23:44:23.428Z,18.88
2022-09-14T23:46:26.237Z,18.91
2022-09-14T23:48:28.921Z,18.91
2022-09-14T23:50:31.637Z,18.93
2022-09-14T23:52:34.200Z,18.98
2022-09-14T23:54:38.085Z,18.94
2022-09-14T23:56:40.837Z,18.95
2022-09-14T23:58:44.036Z,19.05
